sensor_id;sensor_type;location;lat;lon;timestamp;pressure;altitude;pressure_sealevel;temperature;humidity
20889;BME280;10604;51.976;7.594;2023-04-07T00:01:03;100708.25;;;8.70;94.43
20889;BME280;10604;51.976;7.594;2023-04-07T00:03:28;100699.31;;;8.77;93.93
20889;BME280;10604;51.976;7.594;2023-04-07T00:05:54;100695.63;;;8.84;93.65
20889;BME280;10604;51.976;7.594;2023-04-07T00:08:19;100699.31;;;8.77;93.36
20889;BME280;10604;51.976;7.594;2023-04-07T00:10:45;100700.22;;;8.76;94.32
20889;BME280;10604;51.976;7.594;2023-04-07T00:13:11;100695.94;;;8.72;94.37
20889;BME280;10604;51.976;7.594;2023-04-07T00:15:36;100703.00;;;8.70;94.89
20889;BME280;10604;51.976;7.594;2023-04-07T00:18:01;100690.72;;;8.69;94.37
20889;BME280;10604;51.976;7.594;2023-04-07T00:20:26;100694.88;;;8.81;94.32
20889;BME280;10604;51.976;7.594;2023-04-07T00:22:52;100690.22;;;8.90;93.67
20889;BME280;10604;51.976;7.594;2023-04-07T00:25:17;100688.50;;;8.89;93.56
20889;BME280;10604;51.976;7.594;2023-04-07T00:27:42;100691.09;;;8.91;93.83
20889;BME280;10604;51.976;7.594;2023-04-07T00:30:07;100689.41;;;8.88;94.10
20889;BME280;10604;51.976;7.594;2023-04-07T00:32:33;100684.97;;;8.90;94.14
20889;BME280;10604;51.976;7.594;2023-04-07T00:34:58;100689.59;;;8.81;94.70
20889;BME280;10604;51.976;7.594;2023-04-07T00:37:23;100686.03;;;8.82;94.31
20889;BME280;10604;51.976;7.594;2023-04-07T00:39:49;100680.78;;;8.82;94.31
20889;BME280;10604;51.976;7.594;2023-04-07T00:42:15;100675.69;;;8.76;95.14
20889;BME280;10604;51.976;7.594;2023-04-07T00:44:41;100683.38;;;8.83;94.99
20889;BME280;10604;51.976;7.594;2023-04-07T00:47:06;100677.22;;;8.84;94.64
20889;BME280;10604;51.976;7.594;2023-04-07T00:49:31;100678.78;;;8.93;93.61
20889;BME280;10604;51.976;7.594;2023-04-07T00:51:57;100681.38;;;8.94;93.81
20889;BME280;10604;51.976;7.594;2023-04-07T00:54:22;100674.22;;;8.99;93.96
20889;BME280;10604;51.976;7.594;2023-04-07T00:56:48;100667.19;;;9.01;93.86
20889;BME280;10604;51.976;7.594;2023-04-07T00:59:13;100670.88;;;8.94;94.18
20889;BME280;10604;51.976;7.594;2023-04-07T01:01:50;100671.91;;;8.87;94.19
20889;BME280;10604;51.976;7.594;2023-04-07T01:06:54;100662.28;;;8.86;94.64
20889;BME280;10604;51.976;7.594;2023-04-07T01:09:29;100662.19;;;8.89;94.44
20889;BME280;10604;51.976;7.594;2023-04-07T01:12:23;100657.09;;;8.83;94.83
20889;BME280;10604;51.976;7.594;2023-04-07T01:14:50;100661.28;;;8.92;94.78
20889;BME280;10604;51.976;7.594;2023-04-07T01:17:18;100658.44;;;8.99;94.13
20889;BME280;10604;51.976;7.594;2023-04-07T01:19:46;100654.56;;;8.80;94.97
20889;BME280;10604;51.976;7.594;2023-04-07T01:22:14;100653.50;;;8.87;94.31
20889;BME280;10604;51.976;7.594;2023-04-07T01:27:20;100650.19;;;8.79;94.09
20889;BME280;10604;51.976;7.594;2023-04-07T01:29:45;100651.78;;;8.86;94.61
20889;BME280;10604;51.976;7.594;2023-04-07T01:32:11;100655.28;;;8.85;94.72
20889;BME280;10604;51.976;7.594;2023-04-07T01:34:38;100652.69;;;8.84;95.35
20889;BME280;10604;51.976;7.594;2023-04-07T01:37:05;100650.19;;;8.79;95.49
20889;BME280;10604;51.976;7.594;2023-04-07T01:39:30;100651.84;;;8.83;95.79
20889;BME280;10604;51.976;7.594;2023-04-07T01:41:56;100646.41;;;8.89;95.14
20889;BME280;10604;51.976;7.594;2023-04-07T01:44:23;100647.22;;;8.93;94.79
20889;BME280;10604;51.976;7.594;2023-04-07T01:46:48;100646.13;;;9.01;94.36
20889;BME280;10604;51.976;7.594;2023-04-07T01:49:16;100642.22;;;8.82;95.13
20889;BME280;10604;51.976;7.594;2023-04-07T01:51:43;100644.78;;;8.85;94.95
20889;BME280;10604;51.976;7.594;2023-04-07T01:54:14;100650.00;;;8.50;96.08
20889;BME280;10604;51.976;7.594;2023-04-07T01:56:39;100645.09;;;8.73;95.88
20889;BME280;10604;51.976;7.594;2023-04-07T01:59:04;100643.25;;;8.75;96.38
20889;BME280;10604;51.976;7.594;2023-04-07T02:01:30;100641.31;;;8.83;95.70
20889;BME280;10604;51.976;7.594;2023-04-07T02:04:01;100641.25;;;8.86;95.80
20889;BME280;10604;51.976;7.594;2023-04-07T02:06:38;100643.09;;;8.81;95.72
20889;BME280;10604;51.976;7.594;2023-04-07T02:09:06;100651.00;;;8.81;95.28
20889;BME280;10604;51.976;7.594;2023-04-07T02:11:32;100641.25;;;8.86;95.69
20889;BME280;10604;51.976;7.594;2023-04-07T02:13:58;100650.19;;;8.79;95.44
20889;BME280;10604;51.976;7.594;2023-04-07T02:16:25;100643.09;;;8.81;95.19
20889;BME280;10604;51.976;7.594;2023-04-07T02:18:52;100643.25;;;8.75;95.43
20889;BME280;10604;51.976;7.594;2023-04-07T02:21:18;100642.50;;;8.70;95.98
20889;BME280;10604;51.976;7.594;2023-04-07T02:23:43;100639.72;;;8.76;96.12
20889;BME280;10604;51.976;7.594;2023-04-07T02:26:09;100641.53;;;8.74;95.93
20889;BME280;10604;51.976;7.594;2023-04-07T02:28:34;100645.72;;;8.83;95.75
20889;BME280;10604;51.976;7.594;2023-04-07T02:31:00;100639.72;;;8.76;95.84
20889;BME280;10604;51.976;7.594;2023-04-07T02:33:25;100638.88;;;8.76;95.73
20889;BME280;10604;51.976;7.594;2023-04-07T02:35:50;100650.06;;;8.84;95.38
20889;BME280;10604;51.976;7.594;2023-04-07T02:38:16;100645.81;;;8.78;95.34
20889;BME280;10604;51.976;7.594;2023-04-07T02:40:41;100640.47;;;8.81;96.01
20889;BME280;10604;51.976;7.594;2023-04-07T02:43:06;100643.09;;;8.81;95.54
20889;BME280;10604;51.976;7.594;2023-04-07T02:45:31;100648.63;;;8.71;96.33
20889;BME280;10604;51.976;7.594;2023-04-07T02:47:56;100646.75;;;8.76;96.47
20889;BME280;10604;51.976;7.594;2023-04-07T02:50:22;100657.31;;;8.74;96.56
20889;BME280;10604;51.976;7.594;2023-04-07T02:52:47;100653.78;;;8.75;95.75
20889;BME280;10604;51.976;7.594;2023-04-07T02:55:12;100649.47;;;8.73;96.63
20889;BME280;10604;51.976;7.594;2023-04-07T02:57:38;100640.06;;;8.62;96.45
20889;BME280;10604;51.976;7.594;2023-04-07T03:00:03;100643.19;;;8.78;96.26
20889;BME280;10604;51.976;7.594;2023-04-07T03:02:28;100650.25;;;8.76;96.45
20889;BME280;10604;51.976;7.594;2023-04-07T03:04:54;100642.97;;;8.87;96.48
20889;BME280;10604;51.976;7.594;2023-04-07T03:07:19;100642.72;;;8.96;96.01
20889;BME280;10604;51.976;7.594;2023-04-07T03:09:44;100646.34;;;8.92;95.88
20889;BME280;10604;51.976;7.594;2023-04-07T03:12:10;100644.59;;;8.93;95.90
20889;BME280;10604;51.976;7.594;2023-04-07T03:14:35;100651.69;;;8.89;96.14
20889;BME280;10604;51.976;7.594;2023-04-07T03:17:01;100650.81;;;8.89;95.68
20889;BME280;10604;51.976;7.594;2023-04-07T03:19:27;100645.34;;;8.96;95.36
20889;BME280;10604;51.976;7.594;2023-04-07T03:21:52;100652.56;;;8.88;96.45
20889;BME280;10604;51.976;7.594;2023-04-07T03:24:17;100649.09;;;8.88;95.41
20889;BME280;10604;51.976;7.594;2023-04-07T03:26:42;100653.41;;;8.90;96.02
20889;BME280;10604;51.976;7.594;2023-04-07T03:29:08;100648.38;;;8.81;96.19
20889;BME280;10604;51.976;7.594;2023-04-07T03:31:33;100654.56;;;8.80;96.87
20889;BME280;10604;51.976;7.594;2023-04-07T03:33:58;100652.66;;;8.85;96.40
20889;BME280;10604;51.976;7.594;2023-04-07T03:36:23;100651.78;;;8.86;96.14
20889;BME280;10604;51.976;7.594;2023-04-07T03:38:49;100650.03;;;8.85;95.99
20889;BME280;10604;51.976;7.594;2023-04-07T03:41:14;100652.69;;;8.84;96.27
20889;BME280;10604;51.976;7.594;2023-04-07T03:43:39;100645.47;;;8.93;95.87
20889;BME280;10604;51.976;7.594;2023-04-07T03:46:05;100649.75;;;8.96;95.94
20889;BME280;10604;51.976;7.594;2023-04-07T03:48:30;100647.94;;;8.99;95.56
20889;BME280;10604;51.976;7.594;2023-04-07T03:50:56;100648.00;;;8.96;95.37
20889;BME280;10604;51.976;7.594;2023-04-07T03:53:21;100649.13;;;8.86;95.70
20889;BME280;10604;51.976;7.594;2023-04-07T03:55:46;100653.56;;;8.84;95.95
20889;BME280;10604;51.976;7.594;2023-04-07T03:58:12;100654.44;;;8.85;95.50
20889;BME280;10604;51.976;7.594;2023-04-07T04:00:37;100657.81;;;8.90;96.04
20889;BME280;10604;51.976;7.594;2023-04-07T04:03:03;100658.81;;;8.84;95.95
20889;BME280;10604;51.976;7.594;2023-04-07T04:05:28;100664.94;;;8.85;96.25
20889;BME280;10604;51.976;7.594;2023-04-07T04:07:53;100661.56;;;8.80;96.04
20889;BME280;10604;51.976;7.594;2023-04-07T04:10:19;100652.81;;;8.79;95.75
20889;BME280;10604;51.976;7.594;2023-04-07T04:12:45;100656.88;;;8.92;95.89
20889;BME280;10604;51.976;7.594;2023-04-07T04:15:10;100660.63;;;8.82;95.70
20889;BME280;10604;51.976;7.594;2023-04-07T04:17:36;100663.94;;;8.90;95.86
20889;BME280;10604;51.976;7.594;2023-04-07T04:20:01;100664.03;;;8.87;96.07
20889;BME280;10604;51.976;7.594;2023-04-07T04:22:26;100667.31;;;8.95;95.86
20889;BME280;10604;51.976;7.594;2023-04-07T04:24:52;100663.31;;;8.81;95.30
20889;BME280;10604;51.976;7.594;2023-04-07T04:27:17;100665.13;;;8.77;96.35
20889;BME280;10604;51.976;7.594;2023-04-07T04:29:42;100661.50;;;8.81;96.27
20889;BME280;10604;51.976;7.594;2023-04-07T04:32:07;100669.13;;;8.93;96.25
20889;BME280;10604;51.976;7.594;2023-04-07T04:34:33;100666.31;;;8.64;97.55
20889;BME280;10604;51.976;7.594;2023-04-07T04:36:58;100663.06;;;8.53;98.18
20889;BME280;10604;51.976;7.594;2023-04-07T04:39:23;100667.41;;;8.55;98.03
20889;BME280;10604;51.976;7.594;2023-04-07T04:41:48;100669.50;;;8.78;97.40
20889;BME280;10604;51.976;7.594;2023-04-07T04:44:14;100668.31;;;8.90;96.60
20889;BME280;10604;51.976;7.594;2023-04-07T04:46:39;100676.13;;;8.94;96.50
20889;BME280;10604;51.976;7.594;2023-04-07T04:49:05;100677.22;;;8.84;96.73
20889;BME280;10604;51.976;7.594;2023-04-07T04:51:31;100676.25;;;8.88;96.63
20889;BME280;10604;51.976;7.594;2023-04-07T04:53:56;100683.31;;;8.86;96.42
20889;BME280;10604;51.976;7.594;2023-04-07T04:56:21;100687.06;;;8.76;96.36
20889;BME280;10604;51.976;7.594;2023-04-07T04:58:46;100684.97;;;8.90;96.20
20889;BME280;10604;51.976;7.594;2023-04-07T05:01:12;100692.53;;;9.04;95.59
20889;BME280;10604;51.976;7.594;2023-04-07T05:03:37;100687.81;;;8.81;95.73
20889;BME280;10604;51.976;7.594;2023-04-07T05:06:02;100686.13;;;8.80;96.34
20889;BME280;10604;51.976;7.594;2023-04-07T05:08:28;100691.47;;;8.74;96.72
20889;BME280;10604;51.976;7.594;2023-04-07T05:10:53;100692.28;;;8.78;97.06
20889;BME280;10604;51.976;7.594;2023-04-07T05:13:19;100685.41;;;8.72;97.23
20889;BME280;10604;51.976;7.594;2023-04-07T05:15:44;100694.19;;;8.71;96.93
20889;BME280;10604;51.976;7.594;2023-04-07T05:18:10;100702.41;;;8.57;97.91
20889;BME280;10604;51.976;7.594;2023-04-07T05:20:35;100706.72;;;8.60;97.58
20889;BME280;10604;51.976;7.594;2023-04-07T05:23:00;100701.44;;;8.60;97.29
20889;BME280;10604;51.976;7.594;2023-04-07T05:25:26;100700.31;;;8.73;96.60
20889;BME280;10604;51.976;7.594;2023-04-07T05:27:51;100703.59;;;8.81;96.62
20889;BME280;10604;51.976;7.594;2023-04-07T05:30:16;100709.66;;;8.85;96.41
20889;BME280;10604;51.976;7.594;2023-04-07T05:32:41;100707.22;;;8.76;96.92
20889;BME280;10604;51.976;7.594;2023-04-07T05:35:07;100704.44;;;8.83;96.61
20889;BME280;10604;51.976;7.594;2023-04-07T05:37:32;100708.94;;;8.78;96.88
20889;BME280;10604;51.976;7.594;2023-04-07T05:39:57;100703.75;;;8.75;97.17
20889;BME280;10604;51.976;7.594;2023-04-07T05:42:23;100701.91;;;8.79;96.99
20889;BME280;10604;51.976;7.594;2023-04-07T05:44:48;100715.84;;;8.82;97.05
20889;BME280;10604;51.976;7.594;2023-04-07T05:47:13;100715.94;;;8.79;96.48
20889;BME280;10604;51.976;7.594;2023-04-07T05:49:39;100716.69;;;8.84;96.84
20889;BME280;10604;51.976;7.594;2023-04-07T05:52:10;100723.38;;;8.97;96.57
20889;BME280;10604;51.976;7.594;2023-04-07T05:54:36;100719.16;;;8.90;96.34
20889;BME280;10604;51.976;7.594;2023-04-07T05:57:01;100720.06;;;8.89;95.74
20889;BME280;10604;51.976;7.594;2023-04-07T05:59:28;100718.25;;;8.91;95.85
20889;BME280;10604;51.976;7.594;2023-04-07T06:01:53;100721.78;;;8.90;95.88
20889;BME280;10604;51.976;7.594;2023-04-07T06:04:18;100723.50;;;8.93;95.82
20889;BME280;10604;51.976;7.594;2023-04-07T06:06:43;100718.06;;;9.00;95.79
20889;BME280;10604;51.976;7.594;2023-04-07T06:09:09;100727.72;;;9.00;96.14
20889;BME280;10604;51.976;7.594;2023-04-07T06:11:34;100733.91;;;8.97;96.04
20889;BME280;10604;51.976;7.594;2023-04-07T06:13:59;100734.59;;;9.06;96.03
20889;BME280;10604;51.976;7.594;2023-04-07T06:16:25;100738.94;;;9.07;96.12
20889;BME280;10604;51.976;7.594;2023-04-07T06:18:50;100733.03;;;8.97;95.54
20889;BME280;10604;51.976;7.594;2023-04-07T06:21:15;100737.44;;;8.96;96.10
20889;BME280;10604;51.976;7.594;2023-04-07T06:23:41;100748.53;;;9.09;96.04
20889;BME280;10604;51.976;7.594;2023-04-07T06:26:09;100746.09;;;9.01;95.33
20889;BME280;10604;51.976;7.594;2023-04-07T06:28:35;100749.31;;;9.13;95.88
20889;BME280;10604;51.976;7.594;2023-04-07T06:31:00;100744.91;;;9.15;95.81
20889;BME280;10604;51.976;7.594;2023-04-07T06:33:25;100750.88;;;9.21;95.59
20889;BME280;10604;51.976;7.594;2023-04-07T06:35:52;100756.09;;;9.23;95.24
20889;BME280;10604;51.976;7.594;2023-04-07T06:38:17;100753.53;;;9.20;95.17
20889;BME280;10604;51.976;7.594;2023-04-07T06:40:43;100756.22;;;9.17;95.98
20889;BME280;10604;51.976;7.594;2023-04-07T06:43:08;100757.59;;;9.33;94.73
20889;BME280;10604;51.976;7.594;2023-04-07T06:45:33;100756.00;;;9.26;95.23
20889;BME280;10604;51.976;7.594;2023-04-07T06:47:58;100761.19;;;9.30;95.64
20889;BME280;10604;51.976;7.594;2023-04-07T06:50:24;100760.97;;;9.38;95.41
20889;BME280;10604;51.976;7.594;2023-04-07T06:52:49;100758.16;;;9.46;94.95
20889;BME280;10604;51.976;7.594;2023-04-07T06:55:14;100762.41;;;9.51;95.24
20889;BME280;10604;51.976;7.594;2023-04-07T06:57:40;100769.31;;;9.55;93.71
20889;BME280;10604;51.976;7.594;2023-04-07T07:00:05;100770.81;;;9.65;93.88
20889;BME280;10604;51.976;7.594;2023-04-07T07:02:32;100767.19;;;9.69;93.88
20889;BME280;10604;51.976;7.594;2023-04-07T07:04:57;100774.41;;;9.61;94.20
20889;BME280;10604;51.976;7.594;2023-04-07T07:07:22;100765.59;;;9.64;93.90
20889;BME280;10604;51.976;7.594;2023-04-07T07:09:49;100772.41;;;9.72;93.72
20889;BME280;10604;51.976;7.594;2023-04-07T07:12:15;100775.38;;;9.59;94.04
20889;BME280;10604;51.976;7.594;2023-04-07T07:14:41;100773.19;;;9.74;93.55
20889;BME280;10604;51.976;7.594;2023-04-07T07:17:07;100772.28;;;9.75;93.46
20889;BME280;10604;51.976;7.594;2023-04-07T07:19:32;100772.13;;;9.81;93.69
20889;BME280;10604;51.976;7.594;2023-04-07T07:21:57;100770.84;;;9.96;93.21
20889;BME280;10604;51.976;7.594;2023-04-07T07:24:22;100783.66;;;10.10;93.11
20889;BME280;10604;51.976;7.594;2023-04-07T07:26:48;100783.47;;;10.16;92.80
20889;BME280;10604;51.976;7.594;2023-04-07T07:29:13;100784.50;;;10.12;92.30
20889;BME280;10604;51.976;7.594;2023-04-07T07:31:38;100792.19;;;10.21;92.44
20889;BME280;10604;51.976;7.594;2023-04-07T07:34:03;100793.91;;;10.22;91.41
20889;BME280;10604;51.976;7.594;2023-04-07T07:36:29;100799.09;;;10.25;91.53
20889;BME280;10604;51.976;7.594;2023-04-07T07:38:55;100791.59;;;10.42;91.35
20889;BME280;10604;51.976;7.594;2023-04-07T07:41:21;100796.72;;;10.47;90.45
20889;BME280;10604;51.976;7.594;2023-04-07T07:43:46;100800.22;;;10.47;90.28
20889;BME280;10604;51.976;7.594;2023-04-07T07:46:11;100803.84;;;10.43;90.00
20889;BME280;10604;51.976;7.594;2023-04-07T07:48:36;100810.31;;;10.63;89.88
20889;BME280;10604;51.976;7.594;2023-04-07T07:51:02;100808.78;;;10.55;89.73
20889;BME280;10604;51.976;7.594;2023-04-07T07:53:27;100811.09;;;10.66;89.90
20889;BME280;10604;51.976;7.594;2023-04-07T07:55:52;100813.16;;;10.56;90.91
20889;BME280;10604;51.976;7.594;2023-04-07T07:58:19;100812.41;;;10.51;90.17
20889;BME280;10604;51.976;7.594;2023-04-07T08:00:45;100821.41;;;10.44;90.66
20889;BME280;10604;51.976;7.594;2023-04-07T08:03:10;100825.53;;;10.53;90.12
20889;BME280;10604;51.976;7.594;2023-04-07T08:05:36;100829.56;;;10.35;90.93
20889;BME280;10604;51.976;7.594;2023-04-07T08:08:01;100831.84;;;10.47;90.43
20889;BME280;10604;51.976;7.594;2023-04-07T08:10:27;100834.47;;;10.49;90.17
20889;BME280;10604;51.976;7.594;2023-04-07T08:12:52;100843.88;;;10.57;90.24
20889;BME280;10604;51.976;7.594;2023-04-07T08:15:17;100838.31;;;10.67;90.35
20889;BME280;10604;51.976;7.594;2023-04-07T08:17:42;100844.22;;;10.45;91.10
20889;BME280;10604;51.976;7.594;2023-04-07T08:20:08;100843.41;;;10.43;91.98
20889;BME280;10604;51.976;7.594;2023-04-07T08:22:35;100845.69;;;10.55;91.32
20889;BME280;10604;51.976;7.594;2023-04-07T08:25:00;100853.44;;;10.62;90.80
20889;BME280;10604;51.976;7.594;2023-04-07T08:27:25;100856.00;;;10.65;90.39
20889;BME280;10604;51.976;7.594;2023-04-07T08:29:57;100844.47;;;10.67;90.70
20889;BME280;10604;51.976;7.594;2023-04-07T08:32:23;100848.63;;;10.76;91.01
20889;BME280;10604;51.976;7.594;2023-04-07T08:34:48;100849.91;;;10.92;91.09
20889;BME280;10604;51.976;7.594;2023-04-07T08:37:13;100851.06;;;11.11;90.60
20889;BME280;10604;51.976;7.594;2023-04-07T08:39:39;100858.28;;;11.06;89.71
20889;BME280;10604;51.976;7.594;2023-04-07T08:42:05;100863.63;;;11.03;89.35
20889;BME280;10604;51.976;7.594;2023-04-07T08:44:31;100857.38;;;10.78;89.96
20889;BME280;10604;51.976;7.594;2023-04-07T08:46:56;100866.25;;;10.74;89.58
20889;BME280;10604;51.976;7.594;2023-04-07T08:49:23;100868.31;;;10.64;90.09
20889;BME280;10604;51.976;7.594;2023-04-07T08:51:51;100862.59;;;10.79;89.42
20889;BME280;10604;51.976;7.594;2023-04-07T08:54:18;100867.06;;;10.77;88.91
20889;BME280;10604;51.976;7.594;2023-04-07T08:56:45;100866.19;;;10.77;89.09
20889;BME280;10604;51.976;7.594;2023-04-07T08:59:11;100868.16;;;10.99;88.47
20889;BME280;10604;51.976;7.594;2023-04-07T09:01:37;100873.97;;;11.11;88.82
20889;BME280;10604;51.976;7.594;2023-04-07T09:04:03;100879.28;;;11.09;88.23
20889;BME280;10604;51.976;7.594;2023-04-07T09:06:29;100873.84;;;11.15;87.92
20889;BME280;10604;51.976;7.594;2023-04-07T09:08:56;100875.28;;;11.25;87.62
20889;BME280;10604;51.976;7.594;2023-04-07T09:11:21;100881.44;;;11.26;87.65
20889;BME280;10604;51.976;7.594;2023-04-07T09:13:48;100881.22;;;11.04;87.76
20889;BME280;10604;51.976;7.594;2023-04-07T09:16:13;100889.69;;;11.15;87.23
20889;BME280;10604;51.976;7.594;2023-04-07T09:18:38;100884.75;;;11.03;87.36
20889;BME280;10604;51.976;7.594;2023-04-07T09:21:04;100894.63;;;10.96;87.95
20889;BME280;10604;51.976;7.594;2023-04-07T09:23:39;100882.28;;;10.97;89.62
20889;BME280;10604;51.976;7.594;2023-04-07T09:26:19;100888.47;;;10.96;89.44
20889;BME280;10604;51.976;7.594;2023-04-07T09:28:46;100893.25;;;10.83;88.87
20889;BME280;10604;51.976;7.594;2023-04-07T09:31:12;100893.00;;;10.92;88.69
20889;BME280;10604;51.976;7.594;2023-04-07T09:33:37;100889.09;;;11.06;87.92
20889;BME280;10604;51.976;7.594;2023-04-07T09:36:03;100890.91;;;11.04;87.94
20889;BME280;10604;51.976;7.594;2023-04-07T09:38:34;100899.28;;;11.18;88.37
20889;BME280;10604;51.976;7.594;2023-04-07T09:41:12;100896.50;;;11.22;88.38
20889;BME280;10604;51.976;7.594;2023-04-07T09:43:38;100897.72;;;11.11;88.72
20889;BME280;10604;51.976;7.594;2023-04-07T09:46:12;100906.44;;;11.14;87.88
20889;BME280;10604;51.976;7.594;2023-04-07T09:48:37;100902.25;;;11.07;88.60
20889;BME280;10604;51.976;7.594;2023-04-07T09:51:14;100908.16;;;10.86;88.93
20889;BME280;10604;51.976;7.594;2023-04-07T09:53:49;100908.91;;;10.89;89.56
20889;BME280;10604;51.976;7.594;2023-04-07T09:56:16;100909.59;;;10.96;89.09
20889;BME280;10604;51.976;7.594;2023-04-07T09:58:42;100909.97;;;11.13;88.74
20889;BME280;10604;51.976;7.594;2023-04-07T10:01:08;100910.63;;;11.21;88.81
20889;BME280;10604;51.976;7.594;2023-04-07T10:03:34;100907.91;;;11.23;88.34
20889;BME280;10604;51.976;7.594;2023-04-07T10:05:59;100909.34;;;11.05;88.65
20889;BME280;10604;51.976;7.594;2023-04-07T10:08:25;100910.44;;;11.27;87.94
20889;BME280;10604;51.976;7.594;2023-04-07T10:10:51;100908.69;;;11.26;88.65
20889;BME280;10604;51.976;7.594;2023-04-07T10:13:16;100916.34;;;11.35;88.54
20889;BME280;10604;51.976;7.594;2023-04-07T10:15:42;100917.16;;;11.37;87.94
20889;BME280;10604;51.976;7.594;2023-04-07T10:18:07;100928.53;;;11.67;87.84
20889;BME280;10604;51.976;7.594;2023-04-07T10:20:33;100920.72;;;11.36;87.69
20889;BME280;10604;51.976;7.594;2023-04-07T10:23:03;100928.50;;;11.12;87.53
20889;BME280;10604;51.976;7.594;2023-04-07T10:25:33;100930.44;;;11.05;87.75
20889;BME280;10604;51.976;7.594;2023-04-07T10:28:04;100925.63;;;11.19;87.65
20889;BME280;10604;51.976;7.594;2023-04-07T10:30:31;100926.66;;;11.15;87.41
20889;BME280;10604;51.976;7.594;2023-04-07T10:32:57;100938.38;;;11.34;86.90
20889;BME280;10604;51.976;7.594;2023-04-07T10:35:23;100932.72;;;11.47;87.56
20889;BME280;10604;51.976;7.594;2023-04-07T10:40:32;100932.84;;;11.44;87.09
20889;BME280;10604;51.976;7.594;2023-04-07T10:42:58;100942.00;;;11.30;87.67
20889;BME280;10604;51.976;7.594;2023-04-07T10:48:09;100953.97;;;11.44;87.40
20889;BME280;10604;51.976;7.594;2023-04-07T10:50:34;100952.75;;;11.54;87.07
20889;BME280;10604;51.976;7.594;2023-04-07T10:53:07;100956.66;;;11.42;86.20
20889;BME280;10604;51.976;7.594;2023-04-07T10:55:34;100959.31;;;11.41;86.49
20889;BME280;10604;51.976;7.594;2023-04-07T11:03:33;100957.06;;;11.58;85.95
20889;BME280;10604;51.976;7.594;2023-04-07T11:08:35;100960.84;;;11.79;85.59
20889;BME280;10604;51.976;7.594;2023-04-07T11:11:01;100968.97;;;11.71;85.01
20889;BME280;10604;51.976;7.594;2023-04-07T11:13:26;100961.50;;;11.85;85.44
20889;BME280;10604;51.976;7.594;2023-04-07T11:15:52;100964.84;;;11.90;83.56
20889;BME280;10604;51.976;7.594;2023-04-07T11:18:19;100963.34;;;12.09;83.07
20889;BME280;10604;51.976;7.594;2023-04-07T11:23:10;100976.19;;;12.22;82.43
20889;BME280;10604;51.976;7.594;2023-04-07T11:25:36;100970.19;;;12.15;82.45
20889;BME280;10604;51.976;7.594;2023-04-07T11:28:04;100977.22;;;12.16;83.96
20889;BME280;10604;51.976;7.594;2023-04-07T11:30:29;100977.28;;;12.41;83.07
20889;BME280;10604;51.976;7.594;2023-04-07T11:32:55;100967.41;;;12.46;82.55
20889;BME280;10604;51.976;7.594;2023-04-07T11:35:21;100974.47;;;12.45;82.44
20889;BME280;10604;51.976;7.594;2023-04-07T11:37:46;100987.88;;;12.41;82.42
20889;BME280;10604;51.976;7.594;2023-04-07T11:40:12;100980.84;;;12.40;82.45
20889;BME280;10604;51.976;7.594;2023-04-07T11:42:41;100978.50;;;12.31;82.06
20889;BME280;10604;51.976;7.594;2023-04-07T11:45:16;100989.69;;;12.39;82.24
20889;BME280;10604;51.976;7.594;2023-04-07T11:47:42;100985.22;;;12.41;82.35
20889;BME280;10604;51.976;7.594;2023-04-07T11:50:07;100980.97;;;12.09;81.92
20889;BME280;10604;51.976;7.594;2023-04-07T11:52:46;100986.06;;;12.15;82.05
20889;BME280;10604;51.976;7.594;2023-04-07T11:55:18;100988.38;;;12.26;81.85
20889;BME280;10604;51.976;7.594;2023-04-07T11:57:44;100993.94;;;12.16;81.88
20889;BME280;10604;51.976;7.594;2023-04-07T12:00:10;100993.22;;;11.85;80.36
20889;BME280;10604;51.976;7.594;2023-04-07T12:02:36;100997.13;;;11.72;81.34
20889;BME280;10604;51.976;7.594;2023-04-07T12:05:02;100993.03;;;11.91;81.84
20889;BME280;10604;51.976;7.594;2023-04-07T12:07:27;100998.78;;;12.04;81.86
20889;BME280;10604;51.976;7.594;2023-04-07T12:09:52;101002.50;;;11.98;81.29
20889;BME280;10604;51.976;7.594;2023-04-07T12:12:28;100999.44;;;12.10;80.88
20889;BME280;10604;51.976;7.594;2023-04-07T12:14:54;101008.72;;;12.24;81.20
20889;BME280;10604;51.976;7.594;2023-04-07T12:17:22;101011.72;;;12.39;81.13
20889;BME280;10604;51.976;7.594;2023-04-07T12:19:48;101012.50;;;12.43;80.99
20889;BME280;10604;51.976;7.594;2023-04-07T12:22:14;101022.59;;;12.30;80.63
20889;BME280;10604;51.976;7.594;2023-04-07T12:24:39;101016.63;;;11.97;81.51
20889;BME280;10604;51.976;7.594;2023-04-07T12:27:05;101017.13;;;12.08;82.24
20889;BME280;10604;51.976;7.594;2023-04-07T12:29:30;101021.41;;;11.85;81.22
20889;BME280;10604;51.976;7.594;2023-04-07T12:31:55;101017.25;;;11.77;81.65
20889;BME280;10604;51.976;7.594;2023-04-07T12:34:21;101022.59;;;11.74;81.70
20889;BME280;10604;51.976;7.594;2023-04-07T12:36:46;101030.72;;;11.67;82.04
20889;BME280;10604;51.976;7.594;2023-04-07T12:39:12;101025.97;;;11.80;81.61
20889;BME280;10604;51.976;7.594;2023-04-07T12:41:37;101033.78;;;11.84;81.67
20889;BME280;10604;51.976;7.594;2023-04-07T12:44:03;101029.38;;;11.83;82.70
20889;BME280;10604;51.976;7.594;2023-04-07T12:46:28;101027.47;;;11.88;82.31
20889;BME280;10604;51.976;7.594;2023-04-07T12:48:54;101029.75;;;12.00;82.06
20889;BME280;10604;51.976;7.594;2023-04-07T12:51:19;101036.75;;;12.01;82.06
20889;BME280;10604;51.976;7.594;2023-04-07T12:53:45;101029.19;;;12.17;81.41
20889;BME280;10604;51.976;7.594;2023-04-07T12:56:11;101034.53;;;12.15;80.58
20889;BME280;10604;51.976;7.594;2023-04-07T12:58:37;101037.72;;;12.27;81.24
20889;BME280;10604;51.976;7.594;2023-04-07T13:01:02;101043.38;;;12.42;80.21
20889;BME280;10604;51.976;7.594;2023-04-07T13:03:27;101044.22;;;12.69;80.00
20889;BME280;10604;51.976;7.594;2023-04-07T13:05:53;101036.50;;;12.63;78.35
20889;BME280;10604;51.976;7.594;2023-04-07T13:08:19;101042.50;;;12.68;77.96
20889;BME280;10604;51.976;7.594;2023-04-07T13:10:45;101040.84;;;12.90;77.84